createdAt,value
2023-03-29T00:00:45.940Z,9.303167
2023-03-29T00:01:45.922Z,9.303167
2023-03-29T00:02:46.826Z,9.303167
2023-03-29T00:03:45.961Z,9.303167
2023-03-29T00:04:45.951Z,9.303167
2023-03-29T00:05:45.891Z,9.303167
2023-03-29T00:06:45.823Z,9.303167
2023-03-29T00:07:45.814Z,9.303167
2023-03-29T00:08:45.881Z,9.303167
2023-03-29T00:09:46.357Z,9.303167
2023-03-29T00:10:45.793Z,9.303167
2023-03-29T00:11:45.790Z,9.303167
2023-03-29T00:12:45.755Z,9.303167
2023-03-29T00:13:45.746Z,9.303167
2023-03-29T00:14:45.819Z,9.303167
2023-03-29T00:15:45.736Z,9.302547
2023-03-29T00:16:45.767Z,9.302771
2023-03-29T00:17:45.790Z,9.302999
2023-03-29T00:18:45.756Z,9.303003
2023-03-29T00:19:45.670Z,9.303124
2023-03-29T00:20:45.689Z,9.303173
2023-03-29T00:21:46.052Z,9.303241
2023-03-29T00:22:45.667Z,9.303139
2023-03-29T00:23:45.646Z,9.303007
2023-03-29T00:24:45.655Z,9.303035
2023-03-29T00:25:45.688Z,9.303151
2023-03-29T00:26:45.654Z,9.302993
2023-03-29T00:27:45.593Z,9.303051
2023-03-29T00:28:46.549Z,9.302988
2023-03-29T00:29:45.606Z,9.303019
2023-03-29T00:30:45.599Z,9.303005
2023-03-29T00:31:45.641Z,9.303077
2023-03-29T00:32:45.581Z,9.303129
2023-03-29T00:33:45.521Z,9.303182
2023-03-29T00:34:45.590Z,9.303064
2023-03-29T00:35:45.542Z,9.303019
2023-03-29T00:36:45.528Z,9.303020
2023-03-29T00:37:45.536Z,9.303023
2023-03-29T00:38:45.495Z,9.303118
2023-03-29T00:39:45.531Z,9.303014
2023-03-29T00:40:45.502Z,9.303007
2023-03-29T00:41:45.466Z,9.303069
2023-03-29T00:42:45.487Z,9.303094
2023-03-29T00:43:45.463Z,9.303139
2023-03-29T00:44:45.450Z,9.303110
2023-03-29T00:45:45.497Z,9.303133
2023-03-29T00:46:45.540Z,9.303186
2023-03-29T00:47:45.408Z,9.302968
2023-03-29T00:48:45.846Z,9.302931
2023-03-29T00:49:45.369Z,9.303110
2023-03-29T00:50:45.789Z,9.303064
2023-03-29T00:51:45.415Z,9.303265
2023-03-29T00:52:45.534Z,9.303127
2023-03-29T00:53:45.312Z,9.302990
2023-03-29T00:54:45.368Z,9.302959
2023-03-29T00:55:45.315Z,9.303095
2023-03-29T00:56:45.358Z,9.302984
2023-03-29T00:57:45.307Z,9.303027
2023-03-29T00:58:45.271Z,9.302973
2023-03-29T00:59:45.286Z,9.302996
2023-03-29T01:00:45.316Z,9.303049
2023-03-29T01:01:45.275Z,9.303069
2023-03-29T01:02:45.319Z,9.303132
2023-03-29T01:03:45.330Z,9.303086
2023-03-29T01:04:45.289Z,9.303172
2023-03-29T01:05:45.206Z,9.303176
2023-03-29T01:06:45.219Z,9.303209
2023-03-29T01:07:45.327Z,9.303283
2023-03-29T01:08:45.213Z,9.303226
2023-03-29T01:09:45.188Z,9.303194
2023-03-29T01:10:45.194Z,9.303155
2023-03-29T01:11:45.160Z,9.303114
2023-03-29T01:12:45.186Z,9.303185
2023-03-29T01:13:45.212Z,9.303209
2023-03-29T01:14:45.212Z,9.303136
2023-03-29T01:15:45.134Z,9.303014
2023-03-29T01:16:45.169Z,9.303134
2023-03-29T01:17:45.201Z,9.303064
2023-03-29T01:18:45.097Z,9.303072
2023-03-29T01:19:45.270Z,9.303060
2023-03-29T01:20:45.063Z,9.303132
2023-03-29T01:21:45.127Z,9.303079
2023-03-29T01:22:45.083Z,9.303110
2023-03-29T01:23:45.051Z,9.303035
2023-03-29T01:24:45.048Z,9.303028
2023-03-29T01:25:45.055Z,9.303080
2023-03-29T01:26:45.151Z,9.302992
2023-03-29T01:27:45.057Z,9.302979
2023-03-29T01:28:45.054Z,9.303076
2023-03-29T01:29:44.977Z,9.302988
2023-03-29T01:30:44.975Z,9.303049
2023-03-29T01:31:45.004Z,9.303094
2023-03-29T01:32:44.989Z,9.303185
2023-03-29T01:33:45.034Z,9.303126
2023-03-29T01:34:44.970Z,9.303142
2023-03-29T01:35:44.991Z,9.303049
2023-03-29T01:36:44.934Z,9.303146
2023-03-29T01:37:44.940Z,9.303022
2023-03-29T01:38:44.968Z,9.303018
2023-03-29T01:39:44.866Z,9.303089
2023-03-29T01:40:44.944Z,9.303090
2023-03-29T01:41:44.880Z,9.303066
2023-03-29T01:42:44.893Z,9.303078
2023-03-29T01:43:44.851Z,9.303110
2023-03-29T01:44:44.863Z,9.303185
2023-03-29T01:45:44.867Z,9.303151
2023-03-29T01:46:44.871Z,9.303102
2023-03-29T01:47:44.870Z,9.303066
2023-03-29T01:48:44.870Z,9.303052
2023-03-29T01:49:44.838Z,9.303108
2023-03-29T01:50:44.797Z,9.303128
2023-03-29T01:51:44.793Z,9.303001
2023-03-29T01:52:44.768Z,9.303041
2023-03-29T01:53:44.778Z,9.303000
2023-03-29T01:54:44.763Z,9.302970
2023-03-29T01:55:44.808Z,9.302951
2023-03-29T01:56:44.881Z,9.302923
2023-03-29T01:57:44.750Z,9.302998
2023-03-29T01:58:44.742Z,9.303028
2023-03-29T01:59:44.750Z,9.302971
2023-03-29T02:00:44.720Z,9.303029
2023-03-29T02:01:44.709Z,9.303064
2023-03-29T02:02:44.724Z,9.303020
2023-03-29T02:03:44.781Z,9.302905
2023-03-29T02:04:44.711Z,9.303172
2023-03-29T02:05:44.692Z,9.303174
2023-03-29T02:06:44.632Z,9.303135
2023-03-29T02:07:44.698Z,9.303000
2023-03-29T02:08:44.619Z,9.302983
2023-03-29T02:09:44.583Z,9.303045
2023-03-29T02:10:45.537Z,9.302888
2023-03-29T02:11:44.619Z,9.302862
2023-03-29T02:12:44.629Z,9.302984
2023-03-29T02:13:44.565Z,9.302960
2023-03-29T02:14:44.545Z,9.302992
2023-03-29T02:15:44.603Z,9.302971
2023-03-29T02:16:44.571Z,9.303017
2023-03-29T02:17:44.617Z,9.303134
2023-03-29T02:18:44.533Z,9.303146
2023-03-29T02:19:44.555Z,9.303221
2023-03-29T02:20:44.520Z,9.303125
2023-03-29T02:21:44.540Z,9.303043
2023-03-29T02:22:45.515Z,9.303108
2023-03-29T02:23:44.503Z,9.303118
2023-03-29T02:24:44.498Z,9.303111
2023-03-29T02:25:44.433Z,9.303008
2023-03-29T02:26:44.464Z,9.303012
2023-03-29T02:27:44.481Z,9.302956
2023-03-29T02:28:44.475Z,9.303006
2023-03-29T02:29:44.408Z,9.303018
2023-03-29T02:30:44.589Z,9.302900
2023-03-29T02:31:44.475Z,9.302887
2023-03-29T02:32:44.444Z,9.303025
2023-03-29T02:33:44.377Z,9.302966
2023-03-29T02:34:44.433Z,9.302810
2023-03-29T02:35:44.586Z,9.302953
2023-03-29T02:36:44.373Z,9.303058
2023-03-29T02:37:44.390Z,9.302974
2023-03-29T02:38:44.333Z,9.303132
2023-03-29T02:39:44.340Z,9.303084
2023-03-29T02:40:44.388Z,9.302948
2023-03-29T02:41:44.316Z,9.302889
2023-03-29T02:42:44.403Z,9.302988
2023-03-29T02:43:44.288Z,9.303061
2023-03-29T02:44:44.256Z,9.302973
2023-03-29T02:45:44.280Z,9.303067
2023-03-29T02:46:44.351Z,9.303015
2023-03-29T02:47:45.024Z,9.303053
2023-03-29T02:48:44.297Z,9.303076
2023-03-29T02:49:44.322Z,9.303017
2023-03-29T02:50:44.273Z,9.302982
2023-03-29T02:51:44.215Z,9.302938
2023-03-29T02:52:44.249Z,9.302895
2023-03-29T02:53:44.189Z,9.302944
2023-03-29T02:54:44.988Z,9.302927
2023-03-29T02:55:44.192Z,9.303036
2023-03-29T02:56:44.221Z,9.303051
2023-03-29T02:57:44.181Z,9.302979
2023-03-29T02:58:44.166Z,9.303053
2023-03-29T02:59:44.262Z,9.303077
2023-03-29T03:00:44.137Z,9.303142
2023-03-29T03:01:45.131Z,9.303065
2023-03-29T03:02:44.193Z,9.303020
2023-03-29T03:03:44.205Z,9.303021
2023-03-29T03:04:44.151Z,9.303002
2023-03-29T03:05:44.132Z,9.303091
2023-03-29T03:06:44.063Z,9.303061
2023-03-29T03:07:44.108Z,9.303020
2023-03-29T03:08:44.117Z,9.302936
2023-03-29T03:09:44.058Z,9.303002
2023-03-29T03:10:45.055Z,9.303040
2023-03-29T03:11:44.042Z,9.303032
2023-03-29T03:12:44.039Z,9.303043
2023-03-29T03:13:44.018Z,9.303004
2023-03-29T03:14:43.973Z,9.303102
2023-03-29T03:15:44.056Z,9.303105
2023-03-29T03:16:44.013Z,9.303156
2023-03-29T03:17:44.094Z,9.303179
2023-03-29T03:18:43.971Z,9.303028
2023-03-29T03:19:43.972Z,9.303096
2023-03-29T03:20:43.994Z,9.303196
2023-03-29T03:21:43.903Z,9.303077
2023-03-29T03:22:43.955Z,9.303082
2023-03-29T03:23:44.040Z,9.302983
2023-03-29T03:24:43.917Z,9.302995
2023-03-29T03:25:43.880Z,9.302952
2023-03-29T03:26:43.954Z,9.302953
2023-03-29T03:27:43.912Z,9.302858
2023-03-29T03:28:43.862Z,9.302967
2023-03-29T03:29:43.873Z,9.302966
2023-03-29T03:30:43.881Z,9.302987
2023-03-29T03:31:44.505Z,9.302966
2023-03-29T03:32:43.849Z,9.302875
2023-03-29T03:33:43.838Z,9.302991
2023-03-29T03:34:43.814Z,9.302957
2023-03-29T03:35:43.836Z,9.303005
2023-03-29T03:36:43.799Z,9.303041
2023-03-29T03:37:43.743Z,9.303130
2023-03-29T03:38:43.882Z,9.303136
2023-03-29T03:39:43.738Z,9.303158
2023-03-29T03:40:43.742Z,9.303104
2023-03-29T03:41:43.758Z,9.303035
2023-03-29T03:42:43.741Z,9.302998
2023-03-29T03:43:43.701Z,9.302986
2023-03-29T03:44:43.694Z,9.302965
2023-03-29T03:45:43.729Z,9.303000
2023-03-29T03:46:43.677Z,9.303001
2023-03-29T03:47:43.688Z,9.302840
2023-03-29T03:48:43.698Z,9.302888
2023-03-29T03:49:43.640Z,9.302911
2023-03-29T03:50:43.653Z,9.302870
2023-03-29T03:51:43.631Z,9.302898
2023-03-29T03:52:43.616Z,9.303061
2023-03-29T03:53:43.640Z,9.303013
2023-03-29T03:54:43.577Z,9.303037
2023-03-29T03:55:43.603Z,9.303093
2023-03-29T03:56:43.667Z,9.303075
2023-03-29T03:57:43.617Z,9.303123
2023-03-29T03:58:43.620Z,9.303141
2023-03-29T03:59:43.643Z,9.303045
2023-03-29T04:00:43.677Z,9.302983
2023-03-29T04:01:43.601Z,9.302988
2023-03-29T04:02:43.566Z,9.302958
2023-03-29T04:03:43.585Z,9.303056
2023-03-29T04:04:43.427Z,9.302985
2023-03-29T04:05:43.458Z,9.302970
2023-03-29T04:06:43.926Z,9.302901
2023-03-29T04:07:44.439Z,9.303012
2023-03-29T04:08:43.471Z,9.303022
2023-03-29T04:09:43.400Z,9.302862
2023-03-29T04:10:43.412Z,9.302761
2023-03-29T04:11:43.503Z,9.303004
2023-03-29T04:12:43.404Z,9.303061
2023-03-29T04:13:43.453Z,9.302992
2023-03-29T04:14:43.365Z,9.303084
2023-03-29T04:15:44.031Z,9.303096
2023-03-29T04:16:43.361Z,9.303041
2023-03-29T04:17:43.449Z,9.303081
2023-03-29T04:18:43.474Z,9.302988
2023-03-29T04:19:43.348Z,9.302966
2023-03-29T04:20:43.312Z,9.302987
2023-03-29T04:21:43.319Z,9.302949
2023-03-29T04:22:43.322Z,9.302869
2023-03-29T04:23:43.321Z,9.302964
2023-03-29T04:24:43.305Z,9.302844
2023-03-29T04:25:43.298Z,9.302643
2023-03-29T04:26:43.286Z,9.302688
2023-03-29T04:27:43.270Z,9.302618
2023-03-29T04:28:43.292Z,9.302857
2023-03-29T04:29:43.276Z,9.302973
2023-03-29T04:30:43.213Z,9.302894
2023-03-29T04:31:43.256Z,9.302863
2023-03-29T04:32:43.261Z,9.302910
2023-03-29T04:33:43.313Z,9.302926
2023-03-29T04:34:43.191Z,9.303015
2023-03-29T04:35:43.183Z,9.302961
2023-03-29T04:36:43.192Z,9.302919
2023-03-29T04:37:43.165Z,9.302921
2023-03-29T04:38:47.374Z,9.303051
2023-03-29T04:39:43.122Z,9.302877
2023-03-29T04:40:43.156Z,9.302842
2023-03-29T04:41:43.104Z,9.302979
2023-03-29T04:42:43.119Z,9.302951
2023-03-29T04:43:43.171Z,9.302920
2023-03-29T04:44:43.132Z,9.302795
2023-03-29T04:45:43.109Z,9.302780
2023-03-29T04:46:43.230Z,9.302940
2023-03-29T04:47:43.195Z,9.302964
2023-03-29T04:48:43.064Z,9.302950
2023-03-29T04:49:43.086Z,9.302715
2023-03-29T04:50:43.038Z,9.302791
2023-03-29T04:51:42.995Z,9.303070
2023-03-29T04:52:42.988Z,9.302996
2023-03-29T04:53:43.019Z,9.303120
2023-03-29T04:54:43.164Z,9.303204
2023-03-29T04:55:42.963Z,9.303192
2023-03-29T04:56:43.004Z,9.303199
2023-03-29T04:57:42.958Z,9.303084
2023-03-29T04:58:42.984Z,9.302932
2023-03-29T04:59:43.004Z,9.302710
2023-03-29T05:00:42.929Z,9.302722
2023-03-29T05:01:43.171Z,9.302424
2023-03-29T05:02:43.030Z,9.302440
2023-03-29T05:03:43.010Z,9.302536
2023-03-29T05:04:43.063Z,9.302596
2023-03-29T05:05:42.887Z,9.302995
2023-03-29T05:06:43.510Z,9.303051
2023-03-29T05:07:42.866Z,9.302866
2023-03-29T05:08:42.894Z,9.303005
2023-03-29T05:09:42.826Z,9.302917
2023-03-29T05:10:42.834Z,9.302886
2023-03-29T05:11:42.862Z,9.302848
2023-03-29T05:12:42.819Z,9.303069
2023-03-29T05:13:43.580Z,9.303085
2023-03-29T05:14:42.874Z,9.303020
2023-03-29T05:15:42.800Z,9.303082
2023-03-29T05:16:42.901Z,9.302914
2023-03-29T05:17:42.797Z,9.302900
2023-03-29T05:18:42.766Z,9.302879
2023-03-29T05:19:42.805Z,9.302874
2023-03-29T05:20:43.477Z,9.302960
2023-03-29T05:21:44.387Z,9.302813
2023-03-29T05:22:44.546Z,9.303029
2023-03-29T05:23:42.733Z,9.302793
2023-03-29T05:24:42.694Z,9.302835
2023-03-29T05:25:42.671Z,9.302825
2023-03-29T05:26:42.658Z,9.302760
2023-03-29T05:27:42.718Z,9.302914
2023-03-29T05:28:42.680Z,9.302933
2023-03-29T05:29:42.667Z,9.302858
2023-03-29T05:30:42.626Z,9.302794
2023-03-29T05:31:42.685Z,9.302835
2023-03-29T05:32:42.661Z,9.302998
2023-03-29T05:33:42.665Z,9.303049
2023-03-29T05:34:42.642Z,9.302931
2023-03-29T05:35:42.555Z,9.302926
2023-03-29T05:36:42.599Z,9.302999
2023-03-29T05:37:42.571Z,9.302976
2023-03-29T05:38:42.558Z,9.302890
2023-03-29T05:39:42.539Z,9.302896
2023-03-29T05:40:42.534Z,9.303095
2023-03-29T05:41:43.569Z,9.303034
2023-03-29T05:42:42.528Z,9.303031
2023-03-29T05:43:43.511Z,9.303005
2023-03-29T05:44:42.488Z,9.303116
2023-03-29T05:45:42.573Z,9.303036
2023-03-29T05:46:42.451Z,9.303104
2023-03-29T05:47:42.532Z,9.303004
2023-03-29T05:48:43.409Z,9.302939
2023-03-29T05:49:45.163Z,9.302962
2023-03-29T05:50:44.398Z,9.302975
2023-03-29T05:51:42.479Z,9.302911
2023-03-29T05:52:42.629Z,9.302821
2023-03-29T05:53:42.397Z,9.302873
2023-03-29T05:54:42.440Z,9.302931
2023-03-29T05:55:42.628Z,9.302971
2023-03-29T05:56:42.469Z,9.302965
2023-03-29T05:57:42.461Z,9.303108
2023-03-29T05:58:42.476Z,9.303188
2023-03-29T05:59:42.381Z,9.303005
2023-03-29T06:00:42.353Z,9.303060
2023-03-29T06:01:42.368Z,9.303122
2023-03-29T06:02:42.447Z,9.303039
2023-03-29T06:03:42.565Z,9.303096
2023-03-29T06:04:42.340Z,9.303083
2023-03-29T06:05:42.395Z,9.303109
2023-03-29T06:06:42.533Z,9.303006
2023-03-29T06:07:42.341Z,9.303070
2023-03-29T06:08:42.327Z,9.303074
2023-03-29T06:09:42.296Z,9.303067
2023-03-29T06:10:42.390Z,9.303103
2023-03-29T06:11:42.313Z,9.303020
2023-03-29T06:12:42.287Z,9.303068
2023-03-29T06:13:42.393Z,9.303107
2023-03-29T06:14:42.344Z,9.303194
2023-03-29T06:15:42.314Z,9.303141
2023-03-29T06:16:42.937Z,9.303061
2023-03-29T06:17:43.332Z,9.302999
2023-03-29T06:18:42.309Z,9.303138
2023-03-29T06:38:51.970Z,9.303584
2023-03-29T06:39:53.226Z,9.303140
2023-03-29T06:40:53.000Z,9.303156
2023-03-29T06:41:51.917Z,9.303114
2023-03-29T06:42:51.911Z,9.303091
2023-03-29T06:43:51.920Z,9.303065
2023-03-29T06:44:51.952Z,9.303071
2023-03-29T06:45:51.904Z,9.303066
2023-03-29T06:46:51.976Z,9.303028
2023-03-29T06:47:52.808Z,9.303029
2023-03-29T06:48:51.850Z,9.303066
2023-03-29T06:49:52.592Z,9.303090
2023-03-29T06:50:51.854Z,9.302967
2023-03-29T06:51:51.807Z,9.303067
2023-03-29T06:52:51.813Z,9.302961
2023-03-29T06:53:51.780Z,9.302816
2023-03-29T06:54:51.810Z,9.303000
2023-03-29T06:55:51.794Z,9.303127
2023-03-29T06:56:51.799Z,9.303231
2023-03-29T06:57:51.811Z,9.303231
2023-03-29T06:58:51.753Z,9.303129
2023-03-29T06:59:51.762Z,9.303143
2023-03-29T07:00:51.762Z,9.303025
2023-03-29T07:01:51.809Z,9.303015
2023-03-29T07:02:51.795Z,9.303041
2023-03-29T07:03:51.735Z,9.303019
2023-03-29T07:04:51.766Z,9.303073
2023-03-29T07:05:51.696Z,9.303039
2023-03-29T07:06:51.717Z,9.303057
2023-03-29T07:07:51.668Z,9.303023
2023-03-29T07:08:51.724Z,9.303089
2023-03-29T07:09:51.702Z,9.302963
2023-03-29T07:10:51.618Z,9.302933
2023-03-29T07:11:51.641Z,9.302848
2023-03-29T07:12:51.726Z,9.302822
2023-03-29T07:13:51.642Z,9.303006
2023-03-29T07:14:51.636Z,9.303057
2023-03-29T07:15:51.595Z,9.303058
2023-03-29T07:16:51.570Z,9.303039
2023-03-29T07:17:51.592Z,9.303028
2023-03-29T07:18:51.569Z,9.303010
2023-03-29T07:19:52.076Z,9.302990
2023-03-29T07:20:51.531Z,9.302984
2023-03-29T07:21:51.538Z,9.302943
2023-03-29T07:22:51.590Z,9.303006
2023-03-29T07:23:51.559Z,9.303008
2023-03-29T07:24:51.574Z,9.303027
2023-03-29T07:25:51.533Z,9.302959
2023-03-29T07:27:03.200Z,9.302865
2023-03-29T07:27:53.487Z,9.302929
2023-03-29T07:28:51.479Z,9.303016
2023-03-29T07:29:51.532Z,9.303025
2023-03-29T07:30:51.593Z,9.303027
2023-03-29T07:31:51.440Z,9.303085
2023-03-29T07:32:51.540Z,9.303101
2023-03-29T07:33:51.472Z,9.303061
2023-03-29T07:34:51.442Z,9.303002
2023-03-29T07:35:51.460Z,9.302962
2023-03-29T07:36:51.496Z,9.302995
2023-03-29T07:37:51.473Z,9.302942
2023-03-29T07:38:52.450Z,9.302967
2023-03-29T07:39:51.396Z,9.303011
2023-03-29T07:40:51.617Z,9.303085
2023-03-29T07:41:51.379Z,9.303009
2023-03-29T07:42:51.401Z,9.302971
2023-03-29T07:43:51.557Z,9.302989
2023-03-29T07:44:51.393Z,9.302969
2023-03-29T07:45:51.431Z,9.302777
2023-03-29T07:46:51.300Z,9.302647
2023-03-29T07:47:51.439Z,9.302694
2023-03-29T07:48:51.325Z,9.302782
2023-03-29T07:49:51.354Z,9.302870
2023-03-29T07:50:52.368Z,9.302953
2023-03-29T07:51:51.268Z,9.302978
2023-03-29T07:52:51.230Z,9.302936
2023-03-29T07:53:51.233Z,9.303034
2023-03-29T07:54:51.263Z,9.302991
2023-03-29T07:55:51.246Z,9.302995
2023-03-29T07:56:51.318Z,9.303070
2023-03-29T07:57:51.217Z,9.303026
2023-03-29T07:58:51.224Z,9.302890
2023-03-29T07:59:51.232Z,9.303028
2023-03-29T08:00:51.268Z,9.303046
2023-03-29T08:01:51.231Z,9.302843
2023-03-29T08:02:51.201Z,9.302860
2023-03-29T08:03:51.441Z,9.303060
2023-03-29T08:04:51.147Z,9.302965
2023-03-29T08:05:51.132Z,9.302942
2023-03-29T08:06:51.051Z,9.302984
2023-03-29T08:07:51.097Z,9.302949
2023-03-29T08:08:51.087Z,9.302871
2023-03-29T08:09:51.113Z,9.302842
2023-03-29T08:10:51.071Z,9.302988
2023-03-29T08:11:51.030Z,9.303072
2023-03-29T08:12:51.075Z,9.303021
2023-03-29T08:13:50.998Z,9.303091
2023-03-29T08:14:51.010Z,9.303058
2023-03-29T08:15:51.007Z,9.303010
2023-03-29T08:16:51.105Z,9.303016
2023-03-29T08:17:51.041Z,9.303035
2023-03-29T08:18:50.956Z,9.303058
2023-03-29T08:19:51.678Z,9.303024
2023-03-29T08:20:51.037Z,9.302957
2023-03-29T08:21:50.943Z,9.303062
2023-03-29T08:22:50.959Z,9.302999
2023-03-29T08:23:51.033Z,9.302887
2023-03-29T08:24:51.072Z,9.302893
2023-03-29T08:25:51.003Z,9.302999
2023-03-29T08:26:51.063Z,9.303027
2023-03-29T08:27:50.860Z,9.303085
2023-03-29T08:28:50.932Z,9.302953
2023-03-29T08:29:51.278Z,9.302983
2023-03-29T08:30:50.888Z,9.302997
2023-03-29T08:31:51.586Z,9.303007
2023-03-29T08:32:52.286Z,9.303070
2023-03-29T08:33:51.873Z,9.302976
2023-03-29T08:34:50.871Z,9.303058
2023-03-29T08:35:50.858Z,9.302981
2023-03-29T08:36:51.766Z,9.303099
2023-03-29T08:37:50.813Z,9.302975
2023-03-29T08:38:50.817Z,9.303076
2023-03-29T08:39:50.765Z,9.303103
2023-03-29T08:40:50.740Z,9.303086
2023-03-29T08:41:50.743Z,9.302975
2023-03-29T08:42:50.753Z,9.302976
2023-03-29T08:43:51.253Z,9.303061
2023-03-29T08:44:50.747Z,9.302926
2023-03-29T08:45:51.094Z,9.303041
2023-03-29T08:46:51.828Z,9.303068
2023-03-29T08:47:50.721Z,9.303042
2023-03-29T08:48:50.782Z,9.302900
2023-03-29T08:49:50.695Z,9.302978
2023-03-29T08:50:50.692Z,9.302985
2023-03-29T08:51:50.730Z,9.303039
2023-03-29T08:52:50.735Z,9.302943
2023-03-29T08:53:50.624Z,9.302928
2023-03-29T08:54:50.668Z,9.302979
2023-03-29T08:55:50.751Z,9.302806
2023-03-29T08:56:50.988Z,9.302938
2023-03-29T08:57:50.618Z,9.302927
2023-03-29T08:58:50.655Z,9.303041
2023-03-29T08:59:50.597Z,9.303046
2023-03-29T09:00:50.624Z,9.303082
2023-03-29T09:01:50.780Z,9.302904
2023-03-29T09:02:50.648Z,9.302908
2023-03-29T09:03:50.694Z,9.302903
2023-03-29T09:04:50.518Z,9.302829
2023-03-29T09:05:50.504Z,9.302851
2023-03-29T09:06:50.571Z,9.302856
2023-03-29T09:07:50.545Z,9.302968
2023-03-29T09:08:50.820Z,9.302990
2023-03-29T09:09:50.511Z,9.303103
2023-03-29T09:10:50.482Z,9.302973
2023-03-29T09:11:50.438Z,9.302854
2023-03-29T09:12:50.602Z,9.302932
2023-03-29T09:13:50.432Z,9.303020
2023-03-29T09:14:50.515Z,9.303035
2023-03-29T09:15:50.763Z,9.303167
2023-03-29T09:16:50.409Z,9.303121
2023-03-29T09:17:50.419Z,9.303041
2023-03-29T09:18:50.442Z,9.303028
2023-03-29T09:19:50.394Z,9.303003
2023-03-29T09:20:50.469Z,9.303086
2023-03-29T09:21:50.353Z,9.302984
2023-03-29T09:22:50.430Z,9.302931
2023-03-29T09:23:50.344Z,9.303030
2023-03-29T09:24:50.420Z,9.303021
2023-03-29T09:25:53.531Z,9.302932
2023-03-29T09:26:51.314Z,9.302957
2023-03-29T09:27:51.218Z,9.302804
2023-03-29T09:28:50.314Z,9.303006
2023-03-29T09:29:50.252Z,9.303058
2023-03-29T09:30:50.411Z,9.303045
2023-03-29T09:31:50.290Z,9.303003
2023-03-29T09:32:50.383Z,9.302933
2023-03-29T09:33:50.222Z,9.302838
2023-03-29T09:34:50.275Z,9.302739
2023-03-29T09:35:50.284Z,9.302768
2023-03-29T09:36:50.313Z,9.302940
2023-03-29T09:37:50.272Z,9.303037
2023-03-29T09:38:50.292Z,9.303023
2023-03-29T09:39:50.133Z,9.302995
2023-03-29T09:40:50.258Z,9.302926
2023-03-29T09:41:50.120Z,9.302903
2023-03-29T09:42:50.232Z,9.302907
2023-03-29T09:43:51.250Z,9.302900
2023-03-29T09:44:50.221Z,9.302992
2023-03-29T09:45:50.226Z,9.302959
2023-03-29T09:46:50.090Z,9.302987
2023-03-29T09:47:50.149Z,9.302973
2023-03-29T09:48:50.180Z,9.302988
2023-03-29T09:49:50.123Z,9.302949
2023-03-29T09:50:50.181Z,9.302954
2023-03-29T09:51:53.131Z,9.302993
2023-03-29T09:52:50.173Z,9.302989
2023-03-29T09:53:50.119Z,9.303004
2023-03-29T09:54:49.994Z,9.303007
2023-03-29T09:55:50.481Z,9.302957
2023-03-29T09:57:22.725Z,9.303073
2023-03-29T09:57:50.178Z,9.303067
2023-03-29T09:58:50.291Z,9.302969
2023-03-29T09:59:50.097Z,9.302966
2023-03-29T10:00:50.061Z,9.302915
2023-03-29T10:01:50.095Z,9.302889
2023-03-29T10:02:49.963Z,9.302946
2023-03-29T10:03:50.356Z,9.303005
2023-03-29T10:04:49.974Z,9.303071
2023-03-29T10:05:49.981Z,9.303036
2023-03-29T10:06:50.032Z,9.302989
2023-03-29T10:07:49.939Z,9.302995
2023-03-29T10:08:49.927Z,9.302938
2023-03-29T10:09:49.908Z,9.302921
2023-03-29T10:10:49.942Z,9.303033
2023-03-29T10:11:50.741Z,9.303040
2023-03-29T10:12:49.873Z,9.303036
2023-03-29T10:13:50.629Z,9.302945
2023-03-29T10:14:51.520Z,9.302913
2023-03-29T10:15:49.905Z,9.302958
2023-03-29T10:16:49.869Z,9.302953
2023-03-29T10:17:49.884Z,9.303066
2023-03-29T10:18:49.951Z,9.302949
2023-03-29T10:19:49.825Z,9.302903
2023-03-29T10:20:49.817Z,9.302865
2023-03-29T10:21:49.778Z,9.302941
2023-03-29T10:22:49.883Z,9.302902
2023-03-29T10:23:49.751Z,9.302935
2023-03-29T10:24:49.752Z,9.302786
2023-03-29T10:25:49.845Z,9.302835
2023-03-29T10:26:49.743Z,9.302845
2023-03-29T10:27:49.712Z,9.302848
2023-03-29T10:28:49.710Z,9.302948
2023-03-29T10:29:50.044Z,9.302936
2023-03-29T10:30:49.762Z,9.302979
2023-03-29T10:31:49.788Z,9.302984
2023-03-29T10:32:49.770Z,9.302878
2023-03-29T10:33:49.718Z,9.302782
2023-03-29T10:34:49.813Z,9.302857
2023-03-29T10:35:49.670Z,9.303025
2023-03-29T10:36:49.686Z,9.302961
2023-03-29T10:37:49.624Z,9.302996
2023-03-29T10:38:49.596Z,9.302939
2023-03-29T10:39:49.690Z,9.302940
2023-03-29T10:40:49.597Z,9.302773
2023-03-29T10:41:49.630Z,9.302876
2023-03-29T10:42:49.598Z,9.302836
2023-03-29T10:43:49.647Z,9.302889
2023-03-29T10:44:49.539Z,9.302832
2023-03-29T10:45:49.592Z,9.302794
2023-03-29T10:46:49.531Z,9.302840
2023-03-29T10:47:49.552Z,9.302726
2023-03-29T10:48:50.346Z,9.302858
2023-03-29T10:49:50.846Z,9.302984
2023-03-29T10:50:49.635Z,9.303029
2023-03-29T10:51:49.478Z,9.303027
2023-03-29T10:52:49.483Z,9.302941
2023-03-29T10:53:49.449Z,9.303012
2023-03-29T10:54:49.431Z,9.303098
2023-03-29T10:55:49.629Z,9.302987
2023-03-29T10:56:50.810Z,9.302891
2023-03-29T10:57:49.540Z,9.302827
2023-03-29T10:58:49.414Z,9.302847
2023-03-29T10:59:49.419Z,9.302929
2023-03-29T11:00:49.392Z,9.302860
2023-03-29T11:01:49.392Z,9.302876
2023-03-29T11:02:49.450Z,9.302910
2023-03-29T11:03:49.509Z,9.302914
2023-03-29T11:04:49.387Z,9.302997
2023-03-29T11:05:49.331Z,9.302926
2023-03-29T11:06:49.328Z,9.303014
2023-03-29T11:07:49.328Z,9.302917
2023-03-29T11:08:49.298Z,9.302938
2023-03-29T11:09:49.318Z,9.302901
2023-03-29T11:10:49.540Z,9.302950
2023-03-29T11:11:49.248Z,9.303015
2023-03-29T11:12:49.310Z,9.303002
2023-03-29T11:13:49.451Z,9.302861
2023-03-29T11:14:49.339Z,9.302840
2023-03-29T11:15:49.333Z,9.302991
2023-03-29T11:16:49.211Z,9.302896
2023-03-29T11:17:49.318Z,9.302952
2023-03-29T11:18:49.729Z,9.303051
2023-03-29T11:19:49.365Z,9.302896
2023-03-29T11:20:50.112Z,9.302938
2023-03-29T11:21:49.219Z,9.302971
2023-03-29T11:22:49.199Z,9.302882
2023-03-29T11:23:49.292Z,9.302913
2023-03-29T11:24:49.166Z,9.302950
2023-03-29T11:25:49.317Z,9.302879
2023-03-29T11:26:49.281Z,9.302931
2023-03-29T11:27:49.134Z,9.302802
2023-03-29T11:28:49.138Z,9.302925
2023-03-29T11:29:49.142Z,9.302943
2023-03-29T11:30:49.141Z,9.303022
2023-03-29T11:31:49.197Z,9.302998
2023-03-29T11:32:49.881Z,9.302967
2023-03-29T11:33:49.092Z,9.302810
2023-03-29T11:34:49.124Z,9.302841
2023-03-29T11:35:49.086Z,9.302811
2023-03-29T11:36:49.030Z,9.302839
2023-03-29T11:37:49.047Z,9.302889
2023-03-29T11:38:49.068Z,9.302922
2023-03-29T11:39:49.072Z,9.302927
2023-03-29T11:40:49.014Z,9.302980
2023-03-29T11:41:49.079Z,9.303009
2023-03-29T11:42:49.082Z,9.302943
2023-03-29T11:43:49.186Z,9.302885
2023-03-29T11:44:48.963Z,9.302924
2023-03-29T11:45:48.973Z,9.302805
2023-03-29T11:46:48.981Z,9.302941
2023-03-29T11:47:48.941Z,9.302950
2023-03-29T11:48:48.931Z,9.302896
2023-03-29T11:49:48.981Z,9.302917
2023-03-29T11:50:48.890Z,9.302951
2023-03-29T11:51:48.945Z,9.302909
2023-03-29T11:52:48.853Z,9.302858
2023-03-29T11:53:48.943Z,9.302892
2023-03-29T11:54:48.825Z,9.302881
2023-03-29T11:55:48.832Z,9.303058
2023-03-29T11:56:48.980Z,9.303030
2023-03-29T11:57:48.825Z,9.302966
2023-03-29T11:58:48.813Z,9.303000
2023-03-29T11:59:48.822Z,9.303051
2023-03-29T12:00:48.846Z,9.303068
2023-03-29T12:01:48.910Z,9.303086
2023-03-29T12:02:48.936Z,9.303059
2023-03-29T12:03:48.878Z,9.303002